Time;durP1;ratioP1;P1;durP2;ratioP2;P2;SDS_P1;SDS_P2;PMS_P1;PMS_P2;Temp;Humidity;BMP_temperature;BMP_pressure;BME280_temperature;BME280_humidity;BME280_pressure;Samples;Min_cycle;Max_cycle;Signal;HPM_P1;HPM_P2
2022/05/03 00:00:04;;;;;;;;;;;;;;;24.67;13.79;99081.53;5073844;28;19944;-76
2022/05/03 00:02:35;;;;;;;;;;;;;;;24.67;13.69;99073.34;5073378;28;19951;-74
2022/05/03 00:05:02;;;;;;;;;;;;;;;24.65;13.78;99072.88;5057092;28;19921;-74
2022/05/03 00:07:28;;;;;;;;;;;;;;;24.67;13.91;99080.75;5073817;28;19999;-77
2022/05/03 00:09:53;;;;;;;;;;;;;;;24.65;14.02;99075.59;5056716;28;20133;-74
2022/05/03 00:12:20;;;;;;;;;;;;;;;24.68;13.65;99071.41;5073077;28;19974;-73
2022/05/03 00:14:48;;;;;;;;;;;;;;;24.65;13.60;99074.81;5072964;28;19927;-75
2022/05/03 00:17:15;;;;;;;;;;;;;;;24.66;13.91;99079.13;5072703;28;20017;-73
2022/05/03 00:19:40;;;;;;;;;;;;;;;24.66;13.85;99079.13;5056104;28;19923;-75
2022/05/03 00:22:05;;;;;;;;;;;;;;;24.66;13.90;99068.19;5072650;28;19921;-74
2022/05/03 00:24:30;;;;;;;;;;;;;;;24.67;13.95;99075.28;5072511;28;20024;-75
2022/05/03 00:26:56;;;;;;;;;;;;;;;24.66;13.77;99073.66;5072599;28;20294;-75
2022/05/03 00:29:21;;;;;;;;;;;;;;;24.66;13.82;99082.66;5072381;28;19916;-74
2022/05/03 00:31:47;;;;;;;;;;;;;;;24.66;13.78;99076.38;5072480;28;19978;-74
2022/05/03 00:34:12;;;;;;;;;;;;;;;24.66;13.88;99073.66;5094308;28;20355;-75
2022/05/03 00:36:37;;;;;;;;;;;;;;;24.65;13.88;99066.59;5094997;28;19916;-74
2022/05/03 00:39:02;;;;;;;;;;;;;;;24.65;13.88;99072.88;5095011;28;20362;-74
2022/05/03 00:41:44;;;;;;;;;;;;;;;24.66;13.98;99070.94;5094886;28;19916;-74
2022/05/03 00:47:01;;;;;;;;;;;;;;;24.62;13.73;99065.28;5093853;28;19958;-75
2022/05/03 00:49:31;;;;;;;;;;;;;;;24.63;13.91;99068.81;5094987;28;20488;-75
2022/05/03 00:52:00;;;;;;;;;;;;;;;24.64;13.85;99067.72;5094482;28;19982;-74
2022/05/03 00:54:26;;;;;;;;;;;;;;;24.63;13.82;99068.81;5093504;28;19981;-74
2022/05/03 00:56:51;;;;;;;;;;;;;;;24.63;13.90;99068.81;5094573;28;20373;-76
2022/05/03 00:59:22;;;;;;;;;;;;;;;24.63;13.71;99079.75;5094540;28;19917;-73
2022/05/03 01:02:03;;;;;;;;;;;;;;;24.64;13.97;99075.91;5093748;28;19916;-73
2022/05/03 01:04:32;;;;;;;;;;;;;;;24.61;13.81;99069.16;5094262;28;19923;-75
2022/05/03 01:07:15;;;;;;;;;;;;;;;24.63;13.91;99068.81;5094119;28;19923;-76
2022/05/03 01:09:47;;;;;;;;;;;;;;;24.61;13.73;99071.88;5094109;28;20317;-74
2022/05/03 01:12:31;;;;;;;;;;;;;;;24.62;14.04;99075.41;5093209;28;19916;-74
2022/05/03 01:15:05;;;;;;;;;;;;;;;24.61;14.02;99076.53;5094007;28;19992;-74
2022/05/03 01:17:31;;;;;;;;;;;;;;;24.62;13.76;99072.69;5094040;28;19916;-74
2022/05/03 01:20:01;;;;;;;;;;;;;;;24.60;14.04;99070.25;5094082;28;19923;-74
2022/05/03 01:22:35;;;;;;;;;;;;;;;24.61;13.86;99074.63;5093894;28;20454;-74
2022/05/03 01:25:07;;;;;;;;;;;;;;;24.61;13.99;99073.78;5116945;27;20381;-74
2022/05/03 01:27:32;;;;;;;;;;;;;;;24.61;13.93;99068.34;5135143;27;19922;-75
2022/05/03 01:29:57;;;;;;;;;;;;;;;24.61;14.06;99069.16;5134839;27;20332;-73
2022/05/03 01:32:22;;;;;;;;;;;;;;;24.61;14.20;99071.88;5134719;27;19915;-76
2022/05/03 01:34:48;;;;;;;;;;;;;;;24.61;13.99;99069.16;5116692;28;19929;-73
2022/05/03 01:37:39;;;;;;;;;;;;;;;24.61;13.93;99071.06;5135557;28;20366;-74
2022/05/03 01:40:06;;;;;;;;;;;;;;;24.60;13.97;99077.66;5130384;28;20002;-75
2022/05/03 01:42:34;;;;;;;;;;;;;;;24.61;14.16;99071.06;5134604;28;19916;-76
2022/05/03 01:45:08;;;;;;;;;;;;;;;24.61;13.94;99073.78;5134672;28;20002;-74
2022/05/03 01:47:52;;;;;;;;;;;;;;;24.60;13.94;99066.75;5134639;28;20428;-75
2022/05/03 01:50:33;;;;;;;;;;;;;;;24.60;13.94;99074.94;5134774;28;19915;-76
2022/05/03 01:53:01;;;;;;;;;;;;;;;24.58;14.20;99072.50;5134503;28;19916;-75
2022/05/03 01:55:38;;;;;;;;;;;;;;;24.59;14.11;99067.84;5134553;28;19964;-73
2022/05/03 01:58:06;;;;;;;;;;;;;;;24.58;14.00;99072.50;5134466;28;19922;-75
2022/05/03 02:00:35;;;;;;;;;;;;;;;24.59;14.22;99070.56;5134648;28;20281;-75
2022/05/03 02:03:04;;;;;;;;;;;;;;;24.59;14.10;99073.31;5134489;28;19919;-73
2022/05/03 02:05:32;;;;;;;;;;;;;;;24.58;14.21;99068.94;5134692;28;19922;-75
2022/05/03 02:07:57;;;;;;;;;;;;;;;24.59;14.06;99068.66;5134387;28;19915;-76
2022/05/03 02:10:41;;;;;;;;;;;;;;;24.59;14.19;99074.09;5134648;28;19923;-74
2022/05/03 02:13:29;;;;;;;;;;;;;;;24.59;14.19;99070.56;5134709;27;19971;-74
2022/05/03 02:15:57;;;;;;;;;;;;;;;24.59;14.25;99076.03;5055142;28;19917;-75
2022/05/03 02:18:26;;;;;;;;;;;;;;;24.58;14.22;99072.50;5055299;28;19916;-75
2022/05/03 02:21:10;;;;;;;;;;;;;;;24.58;14.19;99079.88;5038356;28;19916;-74
2022/05/03 02:23:54;;;;;;;;;;;;;;;24.58;14.07;99086.16;5038244;28;19967;-74
2022/05/03 02:26:36;;;;;;;;;;;;;;;24.57;14.18;99084.53;5054808;28;19974;-75
2022/05/03 02:29:10;;;;;;;;;;;;;;;24.57;14.06;99094.66;5038089;28;19951;-74
2022/05/03 02:31:40;;;;;;;;;;;;;;;24.57;14.39;99095.47;5038203;28;20363;-76
2022/05/03 02:34:14;;;;;;;;;;;;;;;24.59;14.10;99100.63;5038213;28;19939;-74
2022/05/03 02:36:42;;;;;;;;;;;;;;;24.58;14.17;99099.81;5038270;28;19970;-75
2022/05/03 02:39:07;;;;;;;;;;;;;;;24.59;14.01;99095.16;5054574;28;20570;-75
2022/05/03 02:41:36;;;;;;;;;;;;;;;24.59;14.06;99106.09;5038003;28;19924;-74
2022/05/03 02:44:02;;;;;;;;;;;;;;;24.60;14.24;99107.72;5055031;28;20286;-75
2022/05/03 02:46:48;;;;;;;;;;;;;;;24.60;14.06;99105.78;5054505;28;19916;-75
2022/05/03 02:49:20;;;;;;;;;;;;;;;24.58;14.01;99110.75;5054445;28;20428;-74
2022/05/03 02:51:49;;;;;;;;;;;;;;;24.58;14.23;99115.38;5039927;28;19923;-74
2022/05/03 02:54:29;;;;;;;;;;;;;;;24.57;14.25;99111.84;5138271;27;19916;-73
2022/05/03 02:57:20;;;;;;;;;;;;;;;24.57;14.19;99108.31;5137929;27;19915;-75
2022/05/03 03:02:29;;;;;;;;;;;;;;;24.57;14.27;99119.25;5137598;27;20327;-75
2022/05/03 03:05:17;;;;;;;;;;;;;;;24.60;14.16;99113.97;5137551;27;19919;-73
2022/05/03 03:07:53;;;;;;;;;;;;;;;24.65;14.12;99118.50;5119695;27;20067;-73
2022/05/03 03:10:22;;;;;;;;;;;;;;;24.65;14.05;99115.78;5137564;27;19919;-74
2022/05/03 03:12:51;;;;;;;;;;;;;;;24.72;14.24;99116.13;5119161;27;19915;-75
2022/05/03 03:15:17;;;;;;;;;;;;;;;24.78;14.32;99120.31;5119045;27;19972;-73
2022/05/03 03:17:42;;;;;;;;;;;;;;;24.83;14.22;99119.38;5118798;27;20350;-75
2022/05/03 03:20:08;;;;;;;;;;;;;;;24.85;14.28;99126.16;5137292;27;19916;-74
2022/05/03 03:22:43;;;;;;;;;;;;;;;24.90;14.18;99125.22;5137256;27;19962;-73
2022/05/03 03:25:18;;;;;;;;;;;;;;;24.92;14.27;99128.44;5136612;27;19920;-75
2022/05/03 03:27:43;;;;;;;;;;;;;;;24.96;14.12;99126.69;5137296;27;19916;-74
2022/05/03 03:30:09;;;;;;;;;;;;;;;25.03;14.22;99134.44;5118685;27;20010;-74
2022/05/03 03:32:35;;;;;;;;;;;;;;;25.06;14.27;99131.06;5137058;27;19915;-76
2022/05/03 03:35:00;;;;;;;;;;;;;;;25.09;14.31;99136.75;5136769;27;19938;-74
2022/05/03 03:37:27;;;;;;;;;;;;;;;25.11;14.19;99137.22;5118582;27;19919;-75
2022/05/03 03:39:53;;;;;;;;;;;;;;;25.16;14.09;99136.25;5137247;27;20019;-75
2022/05/03 03:42:19;;;;;;;;;;;;;;;25.16;13.93;99135.47;5136684;27;19915;-73
2022/05/03 03:44:45;;;;;;;;;;;;;;;25.21;14.09;99136.13;5118637;27;19937;-75
2022/05/03 03:47:11;;;;;;;;;;;;;;;25.23;14.15;99138.53;5118748;27;19947;-76
2022/05/03 03:49:36;;;;;;;;;;;;;;;25.28;14.30;99144.72;5136755;27;20027;-74
2022/05/03 03:52:01;;;;;;;;;;;;;;;25.31;14.07;99132.34;5118446;27;20381;-75
2022/05/03 03:54:26;;;;;;;;;;;;;;;25.37;14.26;99146.66;5136390;27;19983;-74
2022/05/03 03:56:52;;;;;;;;;;;;;;;25.35;14.24;99140.72;5136326;27;19922;-74
2022/05/03 03:59:18;;;;;;;;;;;;;;;25.36;14.35;99145.06;5136707;27;19984;-73
2022/05/03 04:01:43;;;;;;;;;;;;;;;25.38;14.12;99145.56;5136293;27;20374;-73
2022/05/03 04:04:09;;;;;;;;;;;;;;;25.40;14.24;99146.84;5136321;27;19922;-75
2022/05/03 04:06:34;;;;;;;;;;;;;;;25.43;14.10;99150.88;5136045;27;19922;-73
2022/05/03 04:09:00;;;;;;;;;;;;;;;25.49;14.16;99149.59;5135903;27;19923;-74
2022/05/03 04:11:25;;;;;;;;;;;;;;;25.49;14.23;99144.94;5135985;27;19923;-76
2022/05/03 04:13:50;;;;;;;;;;;;;;;25.49;13.88;99150.41;5136331;27;19923;-73
2022/05/03 04:16:15;;;;;;;;;;;;;;;25.54;13.83;99145.91;5117802;27;20338;-75
2022/05/03 04:18:46;;;;;;;;;;;;;;;25.55;14.17;99148.34;5135942;27;19938;-74
2022/05/03 04:21:15;;;;;;;;;;;;;;;25.56;13.95;99160.91;5135925;27;19994;-73
2022/05/03 04:23:40;;;;;;;;;;;;;;;25.60;14.03;99155.59;5136065;27;19919;-74
2022/05/03 04:26:05;;;;;;;;;;;;;;;25.57;14.13;99159.75;5117500;27;20385;-76
2022/05/03 04:28:31;;;;;;;;;;;;;;;25.63;13.92;99172.19;5135872;27;20006;-74
2022/05/03 04:30:56;;;;;;;;;;;;;;;25.64;13.79;99162.84;5135596;27;19969;-74
2022/05/03 04:33:21;;;;;;;;;;;;;;;25.63;14.01;99166.72;5135508;27;19916;-76
2022/05/03 04:35:48;;;;;;;;;;;;;;;25.66;13.92;99171.56;5134768;27;20380;-73
2022/05/03 04:38:13;;;;;;;;;;;;;;;25.71;14.12;99172.50;5116852;27;19915;-75
2022/05/03 04:40:39;;;;;;;;;;;;;;;25.68;14.10;99169.31;5135609;27;19916;-75
2022/05/03 04:43:05;;;;;;;;;;;;;;;25.71;14.40;99167.03;5135735;27;19926;-74
2022/05/03 04:45:30;;;;;;;;;;;;;;;25.73;14.35;99170.25;5135918;27;19915;-75
2022/05/03 04:47:56;;;;;;;;;;;;;;;25.74;14.19;99178.16;5135271;27;19926;-75
2022/05/03 04:50:21;;;;;;;;;;;;;;;25.73;14.37;99170.25;5135247;27;19936;-76
2022/05/03 04:52:46;;;;;;;;;;;;;;;25.75;14.15;99168.84;5135132;27;19959;-72
2022/05/03 04:55:12;;;;;;;;;;;;;;;25.76;14.10;99170.44;5135078;27;20104;-74
2022/05/03 04:57:37;;;;;;;;;;;;;;;25.75;14.24;99168.84;5135711;27;19923;-77
2022/05/03 05:00:03;;;;;;;;;;;;;;;25.77;14.06;99171.25;5135363;27;20252;-73
2022/05/03 05:02:28;;;;;;;;;;;;;;;25.79;14.24;99175.28;5134972;27;19915;-74
2022/05/03 05:04:54;;;;;;;;;;;;;;;25.83;14.16;99180.91;5135066;27;19925;-76
2022/05/03 05:07:19;;;;;;;;;;;;;;;25.81;14.15;99178.50;5135497;27;19916;-73
2022/05/03 05:10:23;;;;;;;;;;;;;;;25.85;14.07;99181.38;5134855;27;20293;-75
2022/05/03 05:12:32;;;;;;;;;;;;;;;25.89;14.28;99178.81;5134584;27;19920;-75
2022/05/03 05:14:58;;;;;;;;;;;;;;;25.95;14.12;99189.31;5134828;27;19916;-76
2022/05/03 05:17:23;;;;;;;;;;;;;;;25.93;14.25;99191.56;5135254;27;19916;-76
2022/05/03 05:19:48;;;;;;;;;;;;;;;25.95;14.12;99183.84;5134425;27;19923;-75
2022/05/03 05:22:13;;;;;;;;;;;;;;;25.93;14.00;99183.34;5134913;27;19984;-76
2022/05/03 05:24:39;;;;;;;;;;;;;;;25.95;14.15;99192.06;5134741;27;19994;-75
2022/05/03 05:27:04;;;;;;;;;;;;;;;25.98;13.99;99185.97;5134426;27;19930;-76
2022/05/03 05:29:29;;;;;;;;;;;;;;;25.96;14.03;99190.94;5134603;27;20441;-75
2022/05/03 05:31:54;;;;;;;;;;;;;;;25.98;13.96;99194.16;5116110;27;19915;-77
2022/05/03 05:34:20;;;;;;;;;;;;;;;26.00;14.02;99211.06;5134533;27;19916;-75
2022/05/03 05:36:45;;;;;;;;;;;;;;;26.04;13.81;99206.59;5134963;28;20419;-76
2022/05/03 05:39:10;;;;;;;;;;;;;;;26.08;13.85;99205.94;5134788;28;19921;-76
2022/05/03 05:41:35;;;;;;;;;;;;;;;26.11;13.93;99191.59;5134647;28;19956;-73
2022/05/03 05:44:03;;;;;;;;;;;;;;;26.04;13.59;99214.81;5135185;28;19968;-75
2022/05/03 05:46:28;;;;;;;;;;;;;;;26.02;13.56;99222.50;5134828;28;19916;-75
2022/05/03 05:48:53;;;;;;;;;;;;;;;25.97;13.86;99219.91;5137410;27;19922;-76
2022/05/03 05:51:19;;;;;;;;;;;;;;;25.83;13.69;99224.69;5138727;27;19999;-78
2022/05/03 05:53:44;;;;;;;;;;;;;;;25.83;13.63;99211.00;5139116;27;20422;-75
2022/05/03 05:56:09;;;;;;;;;;;;;;;25.82;13.84;99223.09;5138870;27;19923;-74
2022/05/03 05:58:35;;;;;;;;;;;;;;;25.97;13.69;99228.13;5138493;27;19916;-75
2022/05/03 06:01:00;;;;;;;;;;;;;;;25.96;13.69;99229.28;5138749;27;19915;-77
2022/05/03 06:03:27;;;;;;;;;;;;;;;25.93;13.84;99224.41;5138930;27;20377;-73
2022/05/03 06:05:52;;;;;;;;;;;;;;;26.03;13.74;99228.81;5120805;27;19915;-76
2022/05/03 06:08:18;;;;;;;;;;;;;;;26.00;13.79;99230.25;5138662;27;20356;-75
2022/05/03 06:10:43;;;;;;;;;;;;;;;26.10;13.60;99244.78;5138138;27;19915;-77
2022/05/03 06:13:10;;;;;;;;;;;;;;;26.20;13.19;99245.25;5138137;27;19915;-74
2022/05/03 06:15:35;;;;;;;;;;;;;;;26.20;13.40;99250.75;5138317;27;19916;-75
2022/05/03 06:18:01;;;;;;;;;;;;;;;26.28;13.11;99257.34;5138307;27;19923;-75
2022/05/03 06:20:26;;;;;;;;;;;;;;;26.30;13.19;99255.13;5137787;27;19919;-75
2022/05/03 06:22:54;;;;;;;;;;;;;;;26.37;13.21;99255.44;5138306;27;19915;-75
2022/05/03 06:25:19;;;;;;;;;;;;;;;26.38;13.11;99262.50;5138194;27;19930;-75
2022/05/03 06:27:44;;;;;;;;;;;;;;;26.45;12.92;99258.50;5138609;27;19993;-75
2022/05/03 06:30:10;;;;;;;;;;;;;;;26.32;13.28;99263.81;5137845;27;20285;-76
2022/05/03 06:32:40;;;;;;;;;;;;;;;26.31;13.22;99264.13;5138816;27;19973;-76
2022/05/03 06:35:07;;;;;;;;;;;;;;;25.06;13.58;99262.25;5137714;27;19915;-74
2022/05/03 06:37:36;;;;;;;;;;;;;;;24.85;13.81;99270.16;5138367;27;19992;-75
2022/05/03 06:40:01;;;;;;;;;;;;;;;24.80;13.88;99267.56;5137790;27;19915;-76
2022/05/03 06:42:26;;;;;;;;;;;;;;;24.93;13.61;99277.63;5119728;27;19942;-76
2022/05/03 06:44:51;;;;;;;;;;;;;;;25.02;13.50;99272.22;5137704;27;20430;-74
2022/05/03 06:47:18;;;;;;;;;;;;;;;24.91;13.46;99277.13;5138123;27;19916;-74
2022/05/03 06:49:43;;;;;;;;;;;;;;;25.11;13.37;99278.53;5137766;27;20002;-75
2022/05/03 06:52:09;;;;;;;;;;;;;;;25.67;13.28;99284.53;5137889;27;19985;-76
2022/05/03 06:54:34;;;;;;;;;;;;;;;26.11;12.59;99279.22;5137440;27;19915;-74
2022/05/03 06:56:59;;;;;;;;;;;;;;;26.44;12.32;99282.34;5137989;27;19915;-74
2022/05/03 06:59:24;;;;;;;;;;;;;;;26.68;12.27;99297.53;5136835;27;20357;-76
2022/05/03 07:01:49;;;;;;;;;;;;;;;26.84;12.16;99295.09;5137901;27;19999;-75
2022/05/03 07:04:15;;;;;;;;;;;;;;;26.88;12.12;99301.56;5119607;27;19915;-77
2022/05/03 07:06:40;;;;;;;;;;;;;;;26.86;11.99;99307.38;5138746;27;19922;-74
2022/05/03 07:09:05;;;;;;;;;;;;;;;26.91;12.19;99309.16;5119748;27;20404;-75
2022/05/03 07:11:31;;;;;;;;;;;;;;;26.95;11.95;99308.16;5138011;27;19922;-74
2022/05/03 07:13:57;;;;;;;;;;;;;;;26.98;11.94;99323.19;5119607;27;19926;-76
2022/05/03 07:16:22;;;;;;;;;;;;;;;26.89;11.65;99319.63;5137588;27;19915;-75
2022/05/03 07:24:15;;;;;;;;;;;;;;;26.76;11.66;99338.66;5137124;27;19946;-74
2022/05/03 07:26:40;;;;;;;;;;;;;;;26.56;11.92;99334.59;5118824;27;19919;-75
2022/05/03 07:29:07;;;;;;;;;;;;;;;26.82;11.69;99346.72;5136766;27;20329;-76
2022/05/03 07:31:32;;;;;;;;;;;;;;;26.66;11.80;99333.47;5136959;27;19961;-74
2022/05/03 07:33:57;;;;;;;;;;;;;;;26.68;11.81;99341.38;5136725;27;19915;-74
2022/05/03 07:36:23;;;;;;;;;;;;;;;26.61;11.75;99348.13;5136880;27;19923;-77
2022/05/03 07:38:48;;;;;;;;;;;;;;;26.53;11.80;99353.59;5136871;27;20396;-76
2022/05/03 07:41:14;;;;;;;;;;;;;;;26.52;11.95;99343.75;5137539;27;19983;-76
2022/05/03 07:43:40;;;;;;;;;;;;;;;26.60;11.93;99351.19;5136784;27;20010;-76
2022/05/03 07:46:05;;;;;;;;;;;;;;;26.63;11.80;99364.28;5136642;27;19915;-77
2022/05/03 07:48:30;;;;;;;;;;;;;;;26.63;11.81;99377.97;5118303;27;19920;-76
2022/05/03 07:50:56;;;;;;;;;;;;;;;26.77;11.75;99370.41;5119012;27;19942;-74
2022/05/03 07:53:21;;;;;;;;;;;;;;;26.73;11.69;99374.13;5118744;27;19931;-76
2022/05/03 07:55:47;;;;;;;;;;;;;;;26.60;11.58;99379.38;5136524;27;19916;-73
2022/05/03 07:58:13;;;;;;;;;;;;;;;26.79;11.47;99389.28;5136824;27;19916;-75
2022/05/03 08:00:39;;;;;;;;;;;;;;;26.79;11.39;99386.53;5137041;27;19968;-75
2022/05/03 08:03:04;;;;;;;;;;;;;;;26.65;11.61;99391.34;5136551;27;19915;-77
2022/05/03 08:05:29;;;;;;;;;;;;;;;26.46;11.82;99399.81;5117959;27;19915;-76
2022/05/03 08:07:55;;;;;;;;;;;;;;;26.55;11.72;99408.88;5136292;27;19922;-76
2022/05/03 08:10:20;;;;;;;;;;;;;;;26.67;11.53;99406.34;5135644;27;19919;-76
2022/05/03 08:12:50;;;;;;;;;;;;;;;26.72;11.47;99406.19;5136306;27;19976;-78
2022/05/03 08:15:16;;;;;;;;;;;;;;;26.79;11.31;99416.69;5135946;27;20263;-78
2022/05/03 08:17:41;;;;;;;;;;;;;;;26.82;10.96;99415.22;5135910;27;19995;-76
2022/05/03 08:20:07;;;;;;;;;;;;;;;26.91;10.97;99413.34;5135670;27;19964;-75
2022/05/03 08:22:33;;;;;;;;;;;;;;;26.90;10.81;99412.50;5135526;27;19916;-75
2022/05/03 08:24:58;;;;;;;;;;;;;;;26.91;10.76;99410.59;5135727;27;19946;-74
2022/05/03 08:27:23;;;;;;;;;;;;;;;26.86;10.80;99418.97;5135809;27;20341;-76
2022/05/03 08:29:49;;;;;;;;;;;;;;;26.86;10.76;99428.00;5135804;27;19915;-76
2022/05/03 08:32:14;;;;;;;;;;;;;;;26.79;10.77;99430.41;5135601;27;19915;-74
2022/05/03 08:34:39;;;;;;;;;;;;;;;26.87;10.86;99443.31;5135904;27;19919;-76
2022/05/03 08:42:33;;;;;;;;;;;;;;;26.89;10.63;99456.69;5135717;27;20038;-74
2022/05/03 08:45:00;;;;;;;;;;;;;;;26.85;10.75;99450.22;5135376;27;19915;-73
2022/05/03 08:47:27;;;;;;;;;;;;;;;26.85;10.73;99451.03;5135597;27;20046;-74
2022/05/03 08:50:08;;;;;;;;;;;;;;;26.77;10.73;99452.63;5135612;27;19947;-75
2022/05/03 08:52:54;;;;;;;;;;;;;;;26.77;10.58;99462.81;5117586;27;19915;-74
2022/05/03 08:55:19;;;;;;;;;;;;;;;26.84;10.70;99454.09;5135260;27;19922;-78
2022/05/03 08:57:45;;;;;;;;;;;;;;;26.87;10.39;99464.41;5135728;27;19915;-77
2022/05/03 09:00:11;;;;;;;;;;;;;;;26.84;10.43;99476.03;5135634;27;19951;-78
2022/05/03 09:02:46;;;;;;;;;;;;;;;26.82;10.32;99472.78;5082495;27;19919;-77
2022/05/03 09:05:11;;;;;;;;;;;;;;;26.84;10.46;99476.03;5135392;27;20006;-77
2022/05/03 09:07:37;;;;;;;;;;;;;;;26.86;10.67;99479.28;5135531;27;20027;-76
2022/05/03 09:10:18;;;;;;;;;;;;;;;26.62;10.58;99480.47;5135006;27;19959;-75
2022/05/03 09:12:44;;;;;;;;;;;;;;;26.75;10.58;99484.22;5135198;27;19959;-77
2022/05/03 09:15:09;;;;;;;;;;;;;;;26.79;10.59;99496.97;5134764;27;19968;-75
2022/05/03 09:17:35;;;;;;;;;;;;;;;26.75;10.80;99498.75;5134963;27;19937;-75
2022/05/03 09:23:46;;;;;;;;;;;;;;;26.84;10.48;99487.81;5135773;27;19916;-74
2022/05/03 09:25:33;;;;;;;;;;;;;;;26.68;10.66;99495.66;5136428;27;19930;-75
2022/05/03 09:28:05;;;;;;;;;;;;;;;26.69;10.89;99510.97;5137770;27;19915;-76
2022/05/03 09:30:30;;;;;;;;;;;;;;;26.65;10.62;99515.47;5138571;27;20325;-76
2022/05/03 09:32:56;;;;;;;;;;;;;;;26.65;10.48;99514.66;5120745;27;20187;-75
2022/05/03 09:35:32;;;;;;;;;;;;;;;26.82;10.63;99513.91;5118936;28;20267;-77
2022/05/03 09:37:57;;;;;;;;;;;;;;;26.75;10.57;99517.94;5138301;28;19970;-77
2022/05/03 09:40:22;;;;;;;;;;;;;;;26.72;10.70;99524.03;5139479;28;20354;-77
2022/05/03 09:42:51;;;;;;;;;;;;;;;26.75;10.65;99530.81;5144394;28;20010;-75
2022/05/03 09:45:20;;;;;;;;;;;;;;;26.81;10.50;99531.50;5138204;28;20422;-76
2022/05/03 09:47:49;;;;;;;;;;;;;;;26.79;10.73;99529.06;5139398;28;19923;-77
2022/05/03 09:50:27;;;;;;;;;;;;;;;26.90;10.82;99540.56;5140618;28;19998;-77
2022/05/03 09:52:53;;;;;;;;;;;;;;;26.72;10.75;99537.75;5125432;28;19938;-77
2022/05/03 09:55:26;;;;;;;;;;;;;;;26.79;10.68;99542.78;5140792;28;20317;-77
2022/05/03 09:57:51;;;;;;;;;;;;;;;26.87;10.67;99549.41;5141237;28;19951;-77
2022/05/03 10:00:17;;;;;;;;;;;;;;;26.93;10.79;99545.41;5121792;28;19942;-77
2022/05/03 10:02:43;;;;;;;;;;;;;;;26.92;10.95;99546.50;5141294;28;19915;-77
2022/05/03 10:05:08;;;;;;;;;;;;;;;26.90;11.01;99543.28;5144239;28;20421;-77
2022/05/03 10:07:33;;;;;;;;;;;;;;;26.89;10.94;99555.38;5129405;28;19922;-76
2022/05/03 10:09:58;;;;;;;;;;;;;;;26.92;11.00;99550.09;5124824;28;20025;-76
2022/05/03 10:12:24;;;;;;;;;;;;;;;26.87;11.13;99555.72;5140707;28;19925;-76
2022/05/03 10:14:49;;;;;;;;;;;;;;;26.88;10.92;99556.50;5140594;28;20364;-76
2022/05/03 10:22:42;;;;;;;;;;;;;;;26.97;11.03;99582.00;5139646;28;20426;-76
2022/05/03 10:25:08;;;;;;;;;;;;;;;27.01;10.81;99585.75;5137350;28;19968;-77
2022/05/03 10:27:52;;;;;;;;;;;;;;;27.02;10.59;99590.09;5135518;28;19922;-76
2022/05/03 10:30:19;;;;;;;;;;;;;;;27.03;10.75;99580.75;5134579;28;19963;-75
2022/05/03 10:32:44;;;;;;;;;;;;;;;27.04;10.84;99581.56;5135141;28;20310;-75
2022/05/03 10:35:28;;;;;;;;;;;;;;;27.07;10.55;99589.16;5117582;27;19962;-75
2022/05/03 10:37:59;;;;;;;;;;;;;;;27.04;10.62;99600.75;5137969;27;19915;-75
2022/05/03 10:40:31;;;;;;;;;;;;;;;27.09;10.66;99586.91;5138656;27;19965;-74
2022/05/03 10:43:12;;;;;;;;;;;;;;;27.02;10.50;99592.84;5138943;27;19919;-75
2022/05/03 10:45:53;;;;;;;;;;;;;;;26.95;10.81;99597.97;5138149;27;19973;-76
2022/05/03 10:48:25;;;;;;;;;;;;;;;26.96;10.93;99603.16;5137361;27;19969;-75
2022/05/03 10:50:52;;;;;;;;;;;;;;;26.98;10.96;99602.84;5137668;27;20329;-75
2022/05/03 10:53:18;;;;;;;;;;;;;;;26.81;10.79;99632.91;5137515;27;19923;-75
2022/05/03 10:56:03;;;;;;;;;;;;;;;26.93;10.81;99630.41;5118791;27;19915;-75
2022/05/03 10:58:33;;;;;;;;;;;;;;;26.98;10.75;99631.06;5136237;27;19923;-75
2022/05/03 11:01:07;;;;;;;;;;;;;;;27.07;10.83;99642.06;5137434;27;19940;-74
2022/05/03 11:03:36;;;;;;;;;;;;;;;27.05;10.72;99641.56;5136979;27;19959;-73
2022/05/03 11:06:18;;;;;;;;;;;;;;;27.09;10.50;99648.03;5137451;27;19938;-75
2022/05/03 11:11:36;;;;;;;;;;;;;;;27.04;10.73;99650.91;5137090;27;19926;-74
2022/05/03 11:14:01;;;;;;;;;;;;;;;27.05;10.87;99641.56;5137031;27;19975;-74
2022/05/03 11:16:26;;;;;;;;;;;;;;;27.06;10.63;99656.09;5136668;27;19919;-75
2022/05/03 11:18:52;;;;;;;;;;;;;;;27.06;10.36;99651.44;5137374;27;19947;-75
2022/05/03 11:21:18;;;;;;;;;;;;;;;27.02;10.34;99647.69;5136652;27;20389;-77
2022/05/03 11:23:54;;;;;;;;;;;;;;;27.02;10.22;99663.34;5137158;27;19915;-76
2022/05/03 11:26:20;;;;;;;;;;;;;;;26.98;10.39;99669.44;5137249;27;19955;-73
2022/05/03 11:28:47;;;;;;;;;;;;;;;27.02;10.26;99664.13;5136814;27;19915;-74
2022/05/03 11:31:12;;;;;;;;;;;;;;;27.01;10.28;99669.94;5136718;27;19939;-74
2022/05/03 11:33:53;;;;;;;;;;;;;;;26.95;10.47;99674.75;5136914;27;19919;-74
2022/05/03 11:36:19;;;;;;;;;;;;;;;26.85;10.55;99673.06;5137049;27;19927;-76
2022/05/03 11:38:46;;;;;;;;;;;;;;;26.95;10.49;99678.28;5136435;27;20270;-78
2022/05/03 11:41:12;;;;;;;;;;;;;;;26.99;10.55;99681.22;5136963;27;19930;-77
2022/05/03 11:43:37;;;;;;;;;;;;;;;27.04;10.38;99683.81;5136817;27;19917;-76
2022/05/03 11:46:02;;;;;;;;;;;;;;;27.02;10.30;99686.06;5136471;27;20364;-76
2022/05/03 11:48:28;;;;;;;;;;;;;;;26.98;10.24;99687.84;5136426;27;19965;-76
2022/05/03 11:56:24;;;;;;;;;;;;;;;26.96;10.17;99690.09;5136568;27;19930;-76
2022/05/03 11:58:50;;;;;;;;;;;;;;;26.97;10.31;99699.91;5136274;27;19927;-76
2022/05/03 12:01:15;;;;;;;;;;;;;;;26.99;10.40;99703.16;5136309;27;19916;-75
2022/05/03 12:03:47;;;;;;;;;;;;;;;26.95;10.06;99700.22;5136566;27;19968;-77
2022/05/03 12:06:12;;;;;;;;;;;;;;;26.96;10.05;99704.59;5136222;27;19915;-76
2022/05/03 12:08:38;;;;;;;;;;;;;;;26.92;10.15;99720.06;5117868;27;20357;-76
2022/05/03 12:11:03;;;;;;;;;;;;;;;26.91;9.87;99723.13;5136326;27;20333;-77
2022/05/03 12:13:30;;;;;;;;;;;;;;;26.97;9.85;99724.59;5136560;27;19922;-76
2022/05/03 12:15:58;;;;;;;;;;;;;;;26.93;10.05;99726.34;5136149;27;19923;-77
2022/05/03 12:18:29;;;;;;;;;;;;;;;26.96;9.98;99725.72;5136820;27;19939;-78
2022/05/03 12:20:55;;;;;;;;;;;;;;;26.92;9.86;99731.03;5136563;27;19915;-75
2022/05/03 12:23:33;;;;;;;;;;;;;;;26.90;10.11;99736.00;5136841;27;19999;-75
2022/05/03 12:25:59;;;;;;;;;;;;;;;26.92;10.06;99743.91;5135899;27;19998;-75
2022/05/03 12:28:37;;;;;;;;;;;;;;;26.87;9.88;99746.78;5136363;27;19915;-74
2022/05/03 12:31:03;;;;;;;;;;;;;;;26.87;9.92;99749.53;5135974;27;20011;-76
2022/05/03 12:33:29;;;;;;;;;;;;;;;26.83;9.67;99756.75;5135976;27;20342;-76
2022/05/03 12:35:54;;;;;;;;;;;;;;;26.85;9.63;99746.28;5117303;27;20273;-77
2022/05/03 12:38:22;;;;;;;;;;;;;;;26.81;9.78;99754.31;5117303;27;19922;-75
2022/05/03 12:40:47;;;;;;;;;;;;;;;26.79;9.66;99749.16;5135705;27;19919;-74
2022/05/03 12:43:16;;;;;;;;;;;;;;;26.77;9.62;99750.59;5135704;27;20408;-76
2022/05/03 12:45:41;;;;;;;;;;;;;;;26.76;9.79;99746.22;5136151;27;19922;-76
2022/05/03 12:48:07;;;;;;;;;;;;;;;26.77;9.75;99751.41;5135695;27;20273;-76
2022/05/03 12:50:32;;;;;;;;;;;;;;;26.74;9.51;99768.47;5135916;27;19916;-75
2022/05/03 12:52:57;;;;;;;;;;;;;;;26.72;9.46;99765.22;5135746;27;19915;-76
2022/05/03 12:55:23;;;;;;;;;;;;;;;26.71;9.14;99766.34;5135618;27;20291;-77
2022/05/03 13:00:33;;;;;;;;;;;;;;;26.67;9.44;99784.53;5119986;27;19957;-76
2022/05/03 13:03:01;;;;;;;;;;;;;;;26.64;9.39;99782.41;5135066;27;19969;-75
2022/05/03 13:05:26;;;;;;;;;;;;;;;26.65;9.20;99789.53;5135514;27;19915;-76
2022/05/03 13:07:51;;;;;;;;;;;;;;;26.63;9.23;99791.78;5135365;27;20321;-75
2022/05/03 13:10:17;;;;;;;;;;;;;;;26.61;9.15;99796.69;5135052;27;20334;-75
2022/05/03 13:12:42;;;;;;;;;;;;;;;26.57;9.25;99788.28;5134918;27;19923;-75
2022/05/03 13:15:07;;;;;;;;;;;;;;;26.58;9.25;99802.81;5116540;27;19923;-77
2022/05/03 13:17:32;;;;;;;;;;;;;;;26.56;9.08;99800.38;5134902;27;19957;-76
2022/05/03 13:19:58;;;;;;;;;;;;;;;26.55;9.15;99806.16;5135372;27;19962;-76
2022/05/03 13:22:23;;;;;;;;;;;;;;;26.54;8.93;99799.84;5135315;27;20251;-77
2022/05/03 13:24:48;;;;;;;;;;;;;;;26.56;8.88;99802.28;5134756;27;19926;-77
2022/05/03 13:27:13;;;;;;;;;;;;;;;26.49;9.03;99802.75;5135853;27;19919;-76